sensor_id;sensor_type;location;lat;lon;timestamp;P1;durP1;ratioP1;P2;durP2;ratioP2
1354;SDS011;671;48.972;9.276;2022-09-02T00:01:11;0.30;;;0.30;;
1354;SDS011;671;48.972;9.276;2022-09-02T00:03:40;0.30;;;0.20;;
1354;SDS011;671;48.972;9.276;2022-09-02T00:06:08;0.30;;;0.30;;
1354;SDS011;671;48.972;9.276;2022-09-02T00:08:35;0.30;;;0.30;;
1354;SDS011;671;48.972;9.276;2022-09-02T00:11:02;0.30;;;0.27;;
1354;SDS011;671;48.972;9.276;2022-09-02T00:13:31;0.30;;;0.30;;
1354;SDS011;671;48.972;9.276;2022-09-02T00:15:59;0.30;;;0.30;;
1354;SDS011;671;48.972;9.276;2022-09-02T00:18:26;0.30;;;0.30;;
1354;SDS011;671;48.972;9.276;2022-09-02T00:20:53;0.40;;;0.40;;
1354;SDS011;671;48.972;9.276;2022-09-02T00:23:20;0.30;;;0.20;;
1354;SDS011;671;48.972;9.276;2022-09-02T00:25:47;0.30;;;0.30;;
1354;SDS011;671;48.972;9.276;2022-09-02T00:28:14;0.30;;;0.30;;
1354;SDS011;671;48.972;9.276;2022-09-02T00:30:42;0.40;;;0.40;;
1354;SDS011;671;48.972;9.276;2022-09-02T00:33:09;0.40;;;0.40;;
1354;SDS011;671;48.972;9.276;2022-09-02T00:35:37;0.40;;;0.30;;
1354;SDS011;671;48.972;9.276;2022-09-02T00:38:04;0.40;;;0.40;;
1354;SDS011;671;48.972;9.276;2022-09-02T00:40:31;0.40;;;0.30;;
1354;SDS011;671;48.972;9.276;2022-09-02T00:43:03;0.40;;;0.40;;
1354;SDS011;671;48.972;9.276;2022-09-02T00:45:31;0.40;;;0.40;;
1354;SDS011;671;48.972;9.276;2022-09-02T00:47:58;0.40;;;0.30;;
1354;SDS011;671;48.972;9.276;2022-09-02T00:50:26;0.40;;;0.40;;
1354;SDS011;671;48.972;9.276;2022-09-02T00:52:57;0.40;;;0.40;;
1354;SDS011;671;48.972;9.276;2022-09-02T00:55:31;0.40;;;0.40;;
1354;SDS011;671;48.972;9.276;2022-09-02T00:58:07;0.40;;;0.40;;
1354;SDS011;671;48.972;9.276;2022-09-02T01:00:41;0.40;;;0.30;;
1354;SDS011;671;48.972;9.276;2022-09-02T01:03:11;0.40;;;0.40;;
1354;SDS011;671;48.972;9.276;2022-09-02T01:05:42;0.40;;;0.30;;
1354;SDS011;671;48.972;9.276;2022-09-02T01:08:11;0.40;;;0.30;;
1354;SDS011;671;48.972;9.276;2022-09-02T01:10:40;0.40;;;0.40;;
1354;SDS011;671;48.972;9.276;2022-09-02T01:13:10;0.30;;;0.30;;
1354;SDS011;671;48.972;9.276;2022-09-02T01:15:41;0.30;;;0.30;;
1354;SDS011;671;48.972;9.276;2022-09-02T01:18:10;0.30;;;0.30;;
1354;SDS011;671;48.972;9.276;2022-09-02T01:20:40;0.30;;;0.30;;
1354;SDS011;671;48.972;9.276;2022-09-02T01:23:06;0.40;;;0.40;;
1354;SDS011;671;48.972;9.276;2022-09-02T01:25:33;0.30;;;0.30;;
1354;SDS011;671;48.972;9.276;2022-09-02T01:28:10;0.40;;;0.40;;
1354;SDS011;671;48.972;9.276;2022-09-02T01:30:40;0.40;;;0.30;;
1354;SDS011;671;48.972;9.276;2022-09-02T01:33:09;0.40;;;0.40;;
1354;SDS011;671;48.972;9.276;2022-09-02T01:35:36;0.30;;;0.30;;
1354;SDS011;671;48.972;9.276;2022-09-02T01:38:03;0.40;;;0.30;;
1354;SDS011;671;48.972;9.276;2022-09-02T01:40:31;0.30;;;0.30;;
1354;SDS011;671;48.972;9.276;2022-09-02T01:42:59;0.40;;;0.40;;
1354;SDS011;671;48.972;9.276;2022-09-02T01:45:35;0.40;;;0.40;;
1354;SDS011;671;48.972;9.276;2022-09-02T01:48:03;0.40;;;0.40;;
1354;SDS011;671;48.972;9.276;2022-09-02T01:50:30;0.40;;;0.30;;
1354;SDS011;671;48.972;9.276;2022-09-02T01:52:58;0.40;;;0.40;;
1354;SDS011;671;48.972;9.276;2022-09-02T01:55:31;0.30;;;0.30;;
1354;SDS011;671;48.972;9.276;2022-09-02T01:57:58;0.40;;;0.30;;
1354;SDS011;671;48.972;9.276;2022-09-02T02:00:25;0.40;;;0.40;;
1354;SDS011;671;48.972;9.276;2022-09-02T02:02:52;0.40;;;0.40;;
1354;SDS011;671;48.972;9.276;2022-09-02T02:05:19;0.30;;;0.30;;
1354;SDS011;671;48.972;9.276;2022-09-02T02:07:46;0.40;;;0.40;;
1354;SDS011;671;48.972;9.276;2022-09-02T02:10:14;0.30;;;0.30;;
1354;SDS011;671;48.972;9.276;2022-09-02T02:12:41;0.40;;;0.40;;
1354;SDS011;671;48.972;9.276;2022-09-02T02:15:11;0.40;;;0.30;;
1354;SDS011;671;48.972;9.276;2022-09-02T02:17:40;0.40;;;0.40;;
1354;SDS011;671;48.972;9.276;2022-09-02T02:20:07;0.40;;;0.40;;
1354;SDS011;671;48.972;9.276;2022-09-02T02:22:34;0.30;;;0.30;;
1354;SDS011;671;48.972;9.276;2022-09-02T02:25:02;0.40;;;0.40;;
1354;SDS011;671;48.972;9.276;2022-09-02T02:27:30;0.30;;;0.30;;
1354;SDS011;671;48.972;9.276;2022-09-02T02:29:57;0.40;;;0.40;;
1354;SDS011;671;48.972;9.276;2022-09-02T02:32:24;0.40;;;0.37;;
1354;SDS011;671;48.972;9.276;2022-09-02T02:34:51;0.40;;;0.40;;
1354;SDS011;671;48.972;9.276;2022-09-02T02:37:19;0.40;;;0.40;;
1354;SDS011;671;48.972;9.276;2022-09-02T02:39:46;0.40;;;0.40;;
1354;SDS011;671;48.972;9.276;2022-09-02T02:42:12;0.30;;;0.20;;
1354;SDS011;671;48.972;9.276;2022-09-02T02:44:39;0.40;;;0.33;;
1354;SDS011;671;48.972;9.276;2022-09-02T02:47:07;0.40;;;0.40;;
1354;SDS011;671;48.972;9.276;2022-09-02T02:49:37;0.30;;;0.30;;
1354;SDS011;671;48.972;9.276;2022-09-02T02:52:05;0.40;;;0.40;;
1354;SDS011;671;48.972;9.276;2022-09-02T02:54:32;0.40;;;0.40;;
1354;SDS011;671;48.972;9.276;2022-09-02T02:56:59;0.40;;;0.40;;
1354;SDS011;671;48.972;9.276;2022-09-02T02:59:25;0.50;;;0.50;;
1354;SDS011;671;48.972;9.276;2022-09-02T03:01:54;0.40;;;0.40;;
1354;SDS011;671;48.972;9.276;2022-09-02T03:04:20;0.40;;;0.33;;
1354;SDS011;671;48.972;9.276;2022-09-02T03:06:47;0.40;;;0.30;;
1354;SDS011;671;48.972;9.276;2022-09-02T03:09:14;0.40;;;0.40;;
1354;SDS011;671;48.972;9.276;2022-09-02T03:11:40;0.43;;;0.43;;
1354;SDS011;671;48.972;9.276;2022-09-02T03:14:07;0.50;;;0.50;;
1354;SDS011;671;48.972;9.276;2022-09-02T03:16:34;0.30;;;0.30;;
1354;SDS011;671;48.972;9.276;2022-09-02T03:19:01;0.40;;;0.40;;
1354;SDS011;671;48.972;9.276;2022-09-02T03:21:29;0.40;;;0.40;;
1354;SDS011;671;48.972;9.276;2022-09-02T03:23:55;0.60;;;0.60;;
1354;SDS011;671;48.972;9.276;2022-09-02T03:26:23;0.40;;;0.40;;
1354;SDS011;671;48.972;9.276;2022-09-02T03:28:52;0.50;;;0.50;;
1354;SDS011;671;48.972;9.276;2022-09-02T03:31:24;0.40;;;0.40;;
1354;SDS011;671;48.972;9.276;2022-09-02T03:33:52;0.40;;;0.33;;
1354;SDS011;671;48.972;9.276;2022-09-02T03:36:23;0.47;;;0.47;;
1354;SDS011;671;48.972;9.276;2022-09-02T03:38:55;0.60;;;0.60;;
1354;SDS011;671;48.972;9.276;2022-09-02T03:41:22;0.40;;;0.40;;
1354;SDS011;671;48.972;9.276;2022-09-02T03:43:49;0.40;;;0.37;;
1354;SDS011;671;48.972;9.276;2022-09-02T03:46:16;0.40;;;0.30;;
1354;SDS011;671;48.972;9.276;2022-09-02T03:48:43;0.40;;;0.40;;
1354;SDS011;671;48.972;9.276;2022-09-02T03:51:10;0.40;;;0.30;;
1354;SDS011;671;48.972;9.276;2022-09-02T03:53:38;0.50;;;0.50;;
1354;SDS011;671;48.972;9.276;2022-09-02T03:56:05;0.40;;;0.40;;
1354;SDS011;671;48.972;9.276;2022-09-02T03:58:34;0.40;;;0.30;;
1354;SDS011;671;48.972;9.276;2022-09-02T04:01:01;0.40;;;0.40;;
1354;SDS011;671;48.972;9.276;2022-09-02T04:03:28;0.47;;;0.47;;
1354;SDS011;671;48.972;9.276;2022-09-02T04:05:54;0.40;;;0.40;;
1354;SDS011;671;48.972;9.276;2022-09-02T04:08:21;0.50;;;0.50;;
1354;SDS011;671;48.972;9.276;2022-09-02T04:10:48;0.50;;;0.50;;
1354;SDS011;671;48.972;9.276;2022-09-02T04:13:15;0.40;;;0.40;;
1354;SDS011;671;48.972;9.276;2022-09-02T04:15:42;0.40;;;0.40;;
1354;SDS011;671;48.972;9.276;2022-09-02T04:21:37;0.37;;;0.30;;
1354;SDS011;671;48.972;9.276;2022-09-02T04:24:05;0.40;;;0.40;;
1354;SDS011;671;48.972;9.276;2022-09-02T04:26:34;0.40;;;0.40;;
1354;SDS011;671;48.972;9.276;2022-09-02T04:29:02;0.40;;;0.40;;
1354;SDS011;671;48.972;9.276;2022-09-02T04:31:31;0.40;;;0.40;;
1354;SDS011;671;48.972;9.276;2022-09-02T04:33:59;0.40;;;0.40;;
1354;SDS011;671;48.972;9.276;2022-09-02T04:36:26;0.50;;;0.50;;
1354;SDS011;671;48.972;9.276;2022-09-02T04:38:52;0.50;;;0.50;;
1354;SDS011;671;48.972;9.276;2022-09-02T04:41:20;0.60;;;0.60;;
1354;SDS011;671;48.972;9.276;2022-09-02T04:43:50;0.40;;;0.30;;
1354;SDS011;671;48.972;9.276;2022-09-02T04:46:19;0.40;;;0.40;;
1354;SDS011;671;48.972;9.276;2022-09-02T04:48:46;0.50;;;0.50;;
1354;SDS011;671;48.972;9.276;2022-09-02T04:51:14;0.40;;;0.40;;
1354;SDS011;671;48.972;9.276;2022-09-02T04:53:43;0.40;;;0.40;;
1354;SDS011;671;48.972;9.276;2022-09-02T04:56:12;0.40;;;0.30;;
1354;SDS011;671;48.972;9.276;2022-09-02T04:58:41;0.40;;;0.40;;
1354;SDS011;671;48.972;9.276;2022-09-02T05:01:13;0.50;;;0.50;;
1354;SDS011;671;48.972;9.276;2022-09-02T05:03:41;0.40;;;0.30;;
1354;SDS011;671;48.972;9.276;2022-09-02T05:06:10;0.40;;;0.40;;
1354;SDS011;671;48.972;9.276;2022-09-02T05:08:39;0.40;;;0.37;;
1354;SDS011;671;48.972;9.276;2022-09-02T05:11:09;0.60;;;0.60;;
1354;SDS011;671;48.972;9.276;2022-09-02T05:13:38;0.40;;;0.30;;
1354;SDS011;671;48.972;9.276;2022-09-02T05:16:06;0.40;;;0.40;;
1354;SDS011;671;48.972;9.276;2022-09-02T05:18:33;0.40;;;0.40;;
1354;SDS011;671;48.972;9.276;2022-09-02T05:21:03;0.60;;;0.60;;
1354;SDS011;671;48.972;9.276;2022-09-02T05:23:30;0.40;;;0.30;;
1354;SDS011;671;48.972;9.276;2022-09-02T05:25:57;0.40;;;0.40;;
1354;SDS011;671;48.972;9.276;2022-09-02T05:28:23;0.50;;;0.50;;
1354;SDS011;671;48.972;9.276;2022-09-02T05:30:50;0.40;;;0.40;;
1354;SDS011;671;48.972;9.276;2022-09-02T05:33:16;0.40;;;0.40;;
1354;SDS011;671;48.972;9.276;2022-09-02T05:35:43;0.40;;;0.40;;
1354;SDS011;671;48.972;9.276;2022-09-02T05:38:10;0.40;;;0.40;;
1354;SDS011;671;48.972;9.276;2022-09-02T05:40:37;0.40;;;0.30;;
1354;SDS011;671;48.972;9.276;2022-09-02T05:43:04;0.40;;;0.40;;
1354;SDS011;671;48.972;9.276;2022-09-02T05:45:31;0.40;;;0.40;;
1354;SDS011;671;48.972;9.276;2022-09-02T05:48:00;0.40;;;0.37;;
1354;SDS011;671;48.972;9.276;2022-09-02T05:50:46;0.40;;;0.30;;
1354;SDS011;671;48.972;9.276;2022-09-02T05:53:13;0.50;;;0.50;;
1354;SDS011;671;48.972;9.276;2022-09-02T05:55:39;0.40;;;0.40;;
1354;SDS011;671;48.972;9.276;2022-09-02T05:58:06;0.40;;;0.40;;
1354;SDS011;671;48.972;9.276;2022-09-02T06:00:33;0.40;;;0.40;;
1354;SDS011;671;48.972;9.276;2022-09-02T06:02:59;0.50;;;0.50;;
1354;SDS011;671;48.972;9.276;2022-09-02T06:05:26;0.30;;;0.30;;
1354;SDS011;671;48.972;9.276;2022-09-02T06:07:52;0.40;;;0.40;;
1354;SDS011;671;48.972;9.276;2022-09-02T06:10:19;0.40;;;0.40;;
1354;SDS011;671;48.972;9.276;2022-09-02T06:12:45;0.40;;;0.40;;
1354;SDS011;671;48.972;9.276;2022-09-02T06:15:12;0.40;;;0.40;;
1354;SDS011;671;48.972;9.276;2022-09-02T06:17:39;0.40;;;0.30;;
1354;SDS011;671;48.972;9.276;2022-09-02T06:20:06;0.40;;;0.30;;
1354;SDS011;671;48.972;9.276;2022-09-02T06:22:33;0.40;;;0.40;;
1354;SDS011;671;48.972;9.276;2022-09-02T06:24:59;0.40;;;0.30;;
1354;SDS011;671;48.972;9.276;2022-09-02T06:27:26;0.40;;;0.30;;
1354;SDS011;671;48.972;9.276;2022-09-02T06:29:52;0.47;;;0.47;;
1354;SDS011;671;48.972;9.276;2022-09-02T06:32:19;0.40;;;0.37;;
1354;SDS011;671;48.972;9.276;2022-09-02T06:34:45;0.40;;;0.37;;
1354;SDS011;671;48.972;9.276;2022-09-02T06:37:12;0.40;;;0.30;;
1354;SDS011;671;48.972;9.276;2022-09-02T06:39:38;0.40;;;0.30;;
1354;SDS011;671;48.972;9.276;2022-09-02T06:42:08;0.30;;;0.23;;
1354;SDS011;671;48.972;9.276;2022-09-02T06:44:35;0.40;;;0.37;;
1354;SDS011;671;48.972;9.276;2022-09-02T06:47:02;0.40;;;0.30;;
1354;SDS011;671;48.972;9.276;2022-09-02T06:49:29;0.30;;;0.30;;
1354;SDS011;671;48.972;9.276;2022-09-02T06:51:56;0.40;;;0.40;;
1354;SDS011;671;48.972;9.276;2022-09-02T06:54:23;0.40;;;0.30;;
1354;SDS011;671;48.972;9.276;2022-09-02T06:56:50;0.40;;;0.30;;
1354;SDS011;671;48.972;9.276;2022-09-02T06:59:18;0.40;;;0.30;;
1354;SDS011;671;48.972;9.276;2022-09-02T07:01:45;0.30;;;0.30;;
1354;SDS011;671;48.972;9.276;2022-09-02T07:04:13;0.30;;;0.30;;
1354;SDS011;671;48.972;9.276;2022-09-02T07:06:59;0.40;;;0.30;;
1354;SDS011;671;48.972;9.276;2022-09-02T07:09:26;0.30;;;0.20;;
1354;SDS011;671;48.972;9.276;2022-09-02T07:11:59;0.40;;;0.40;;
1354;SDS011;671;48.972;9.276;2022-09-02T07:14:27;0.37;;;0.30;;
1354;SDS011;671;48.972;9.276;2022-09-02T07:16:54;0.30;;;0.30;;
1354;SDS011;671;48.972;9.276;2022-09-02T07:19:22;0.30;;;0.23;;
1354;SDS011;671;48.972;9.276;2022-09-02T07:21:50;0.30;;;0.30;;
1354;SDS011;671;48.972;9.276;2022-09-02T07:24:16;0.40;;;0.30;;
1354;SDS011;671;48.972;9.276;2022-09-02T07:26:43;0.30;;;0.20;;
1354;SDS011;671;48.972;9.276;2022-09-02T07:29:10;0.30;;;0.20;;
1354;SDS011;671;48.972;9.276;2022-09-02T07:31:38;0.30;;;0.20;;
1354;SDS011;671;48.972;9.276;2022-09-02T07:34:07;0.30;;;0.30;;
1354;SDS011;671;48.972;9.276;2022-09-02T07:36:35;0.30;;;0.30;;
1354;SDS011;671;48.972;9.276;2022-09-02T07:39:03;0.30;;;0.20;;
1354;SDS011;671;48.972;9.276;2022-09-02T07:41:31;0.30;;;0.30;;
1354;SDS011;671;48.972;9.276;2022-09-02T07:43:59;0.30;;;0.20;;
1354;SDS011;671;48.972;9.276;2022-09-02T07:46:26;0.30;;;0.20;;
1354;SDS011;671;48.972;9.276;2022-09-02T07:48:54;0.30;;;0.20;;
1354;SDS011;671;48.972;9.276;2022-09-02T07:51:21;0.30;;;0.20;;
1354;SDS011;671;48.972;9.276;2022-09-02T07:53:47;0.30;;;0.20;;
1354;SDS011;671;48.972;9.276;2022-09-02T07:56:15;0.30;;;0.27;;
1354;SDS011;671;48.972;9.276;2022-09-02T07:58:43;0.30;;;0.20;;
1354;SDS011;671;48.972;9.276;2022-09-02T08:01:11;0.30;;;0.30;;
1354;SDS011;671;48.972;9.276;2022-09-02T08:03:38;0.30;;;0.23;;
1354;SDS011;671;48.972;9.276;2022-09-02T08:06:06;0.30;;;0.30;;
1354;SDS011;671;48.972;9.276;2022-09-02T08:08:33;0.30;;;0.30;;
1354;SDS011;671;48.972;9.276;2022-09-02T08:11:00;0.30;;;0.20;;
1354;SDS011;671;48.972;9.276;2022-09-02T08:13:27;0.30;;;0.20;;
1354;SDS011;671;48.972;9.276;2022-09-02T08:15:54;0.30;;;0.20;;
1354;SDS011;671;48.972;9.276;2022-09-02T08:18:21;0.30;;;0.20;;
1354;SDS011;671;48.972;9.276;2022-09-02T08:20:48;0.30;;;0.20;;
1354;SDS011;671;48.972;9.276;2022-09-02T08:23:14;0.30;;;0.20;;
1354;SDS011;671;48.972;9.276;2022-09-02T08:25:41;0.30;;;0.20;;
1354;SDS011;671;48.972;9.276;2022-09-02T08:28:08;0.30;;;0.20;;
1354;SDS011;671;48.972;9.276;2022-09-02T08:30:34;0.30;;;0.20;;
1354;SDS011;671;48.972;9.276;2022-09-02T08:33:01;0.30;;;0.20;;
1354;SDS011;671;48.972;9.276;2022-09-02T08:35:27;0.30;;;0.20;;
1354;SDS011;671;48.972;9.276;2022-09-02T08:37:54;0.30;;;0.20;;
1354;SDS011;671;48.972;9.276;2022-09-02T08:40:23;0.30;;;0.20;;
1354;SDS011;671;48.972;9.276;2022-09-02T08:43:01;0.30;;;0.20;;
1354;SDS011;671;48.972;9.276;2022-09-02T08:45:37;0.30;;;0.20;;
1354;SDS011;671;48.972;9.276;2022-09-02T08:50:39;0.30;;;0.20;;
1354;SDS011;671;48.972;9.276;2022-09-02T08:53:31;0.30;;;0.20;;
1354;SDS011;671;48.972;9.276;2022-09-02T08:56:02;0.30;;;0.20;;
1354;SDS011;671;48.972;9.276;2022-09-02T08:58:38;0.30;;;0.20;;
1354;SDS011;671;48.972;9.276;2022-09-02T09:17:54;0.30;;;0.20;;
1354;SDS011;671;48.972;9.276;2022-09-02T09:20:29;0.30;;;0.20;;
1354;SDS011;671;48.972;9.276;2022-09-02T09:23:02;0.30;;;0.20;;
1354;SDS011;671;48.972;9.276;2022-09-02T09:25:37;0.30;;;0.20;;
1354;SDS011;671;48.972;9.276;2022-09-02T09:28:04;0.30;;;0.20;;
1354;SDS011;671;48.972;9.276;2022-09-02T09:30:31;0.30;;;0.20;;
1354;SDS011;671;48.972;9.276;2022-09-02T09:32:58;0.30;;;0.20;;
1354;SDS011;671;48.972;9.276;2022-09-02T09:35:25;0.30;;;0.20;;
1354;SDS011;671;48.972;9.276;2022-09-02T09:37:54;0.30;;;0.20;;
1354;SDS011;671;48.972;9.276;2022-09-02T09:45:39;0.30;;;0.10;;
1354;SDS011;671;48.972;9.276;2022-09-02T09:53:22;0.30;;;0.20;;
1354;SDS011;671;48.972;9.276;2022-09-02T09:58:34;0.30;;;0.20;;
1354;SDS011;671;48.972;9.276;2022-09-02T10:04:07;0.30;;;0.10;;
1354;SDS011;671;48.972;9.276;2022-09-02T10:06:37;0.30;;;0.10;;
1354;SDS011;671;48.972;9.276;2022-09-02T10:11:52;0.30;;;0.20;;
1354;SDS011;671;48.972;9.276;2022-09-02T10:14:22;0.30;;;0.20;;
1354;SDS011;671;48.972;9.276;2022-09-02T10:30:51;0.30;;;0.10;;
1354;SDS011;671;48.972;9.276;2022-09-02T10:38:29;0.30;;;0.20;;
1354;SDS011;671;48.972;9.276;2022-09-02T10:47:02;0.30;;;0.10;;
1354;SDS011;671;48.972;9.276;2022-09-02T10:57:20;0.30;;;0.10;;
1354;SDS011;671;48.972;9.276;2022-09-02T10:59:52;0.30;;;0.10;;
1354;SDS011;671;48.972;9.276;2022-09-02T11:10:27;0.30;;;0.10;;
1354;SDS011;671;48.972;9.276;2022-09-02T11:15:52;0.30;;;0.10;;
1354;SDS011;671;48.972;9.276;2022-09-02T11:18:32;0.30;;;0.10;;
1354;SDS011;671;48.972;9.276;2022-09-02T11:26:35;0.30;;;0.10;;
1354;SDS011;671;48.972;9.276;2022-09-02T11:35:08;0.30;;;0.10;;
1354;SDS011;671;48.972;9.276;2022-09-02T11:40:17;0.30;;;0.10;;
1354;SDS011;671;48.972;9.276;2022-09-02T11:53:52;0.30;;;0.10;;
1354;SDS011;671;48.972;9.276;2022-09-02T11:56:22;0.30;;;0.10;;
1354;SDS011;671;48.972;9.276;2022-09-02T11:58:53;0.30;;;0.10;;
1354;SDS011;671;48.972;9.276;2022-09-02T12:03:55;0.30;;;0.10;;
1354;SDS011;671;48.972;9.276;2022-09-02T12:06:26;0.30;;;0.10;;
1354;SDS011;671;48.972;9.276;2022-09-02T12:19:42;0.30;;;0.10;;
1354;SDS011;671;48.972;9.276;2022-09-02T12:25:03;0.30;;;0.10;;
1354;SDS011;671;48.972;9.276;2022-09-02T12:27:31;0.30;;;0.10;;
1354;SDS011;671;48.972;9.276;2022-09-02T12:30:06;0.30;;;0.10;;
1354;SDS011;671;48.972;9.276;2022-09-02T12:35:13;0.30;;;0.10;;
1354;SDS011;671;48.972;9.276;2022-09-02T12:41:10;0.30;;;0.10;;
1354;SDS011;671;48.972;9.276;2022-09-02T12:49:10;0.30;;;0.10;;
1354;SDS011;671;48.972;9.276;2022-09-02T12:51:54;0.30;;;0.10;;
1354;SDS011;671;48.972;9.276;2022-09-02T12:54:24;0.30;;;0.10;;
1354;SDS011;671;48.972;9.276;2022-09-02T12:57:07;0.30;;;0.10;;
1354;SDS011;671;48.972;9.276;2022-09-02T12:59:36;0.30;;;0.10;;
1354;SDS011;671;48.972;9.276;2022-09-02T13:05:23;0.30;;;0.10;;
1354;SDS011;671;48.972;9.276;2022-09-02T13:22:01;0.30;;;0.10;;
1354;SDS011;671;48.972;9.276;2022-09-02T13:34:46;0.30;;;0.10;;
1354;SDS011;671;48.972;9.276;2022-09-02T13:37:31;0.30;;;0.10;;
1354;SDS011;671;48.972;9.276;2022-09-02T13:40:15;0.30;;;0.10;;
1354;SDS011;671;48.972;9.276;2022-09-02T13:42:49;0.30;;;0.10;;
1354;SDS011;671;48.972;9.276;2022-09-02T13:45:24;0.30;;;0.10;;
1354;SDS011;671;48.972;9.276;2022-09-02T13:47:52;0.30;;;0.10;;
1354;SDS011;671;48.972;9.276;2022-09-02T13:50:24;0.30;;;0.10;;
1354;SDS011;671;48.972;9.276;2022-09-02T13:52:57;0.30;;;0.10;;
1354;SDS011;671;48.972;9.276;2022-09-02T13:55:28;0.30;;;0.10;;
1354;SDS011;671;48.972;9.276;2022-09-02T13:58:02;0.30;;;0.10;;
1354;SDS011;671;48.972;9.276;2022-09-02T14:00:35;0.30;;;0.10;;
1354;SDS011;671;48.972;9.276;2022-09-02T14:03:04;0.30;;;0.10;;
1354;SDS011;671;48.972;9.276;2022-09-02T14:05:43;0.30;;;0.10;;
1354;SDS011;671;48.972;9.276;2022-09-02T14:08:13;0.30;;;0.10;;
1354;SDS011;671;48.972;9.276;2022-09-02T14:10:43;0.30;;;0.10;;
1354;SDS011;671;48.972;9.276;2022-09-02T14:13:10;0.30;;;0.10;;
1354;SDS011;671;48.972;9.276;2022-09-02T14:15:38;0.30;;;0.10;;
1354;SDS011;671;48.972;9.276;2022-09-02T14:23:25;0.30;;;0.10;;
1354;SDS011;671;48.972;9.276;2022-09-02T14:25:54;0.30;;;0.10;;
1354;SDS011;671;48.972;9.276;2022-09-02T14:28:23;0.30;;;0.10;;
1354;SDS011;671;48.972;9.276;2022-09-02T14:38:48;0.30;;;0.10;;
1354;SDS011;671;48.972;9.276;2022-09-02T14:41:24;0.30;;;0.10;;
1354;SDS011;671;48.972;9.276;2022-09-02T14:47:00;0.30;;;0.10;;
1354;SDS011;671;48.972;9.276;2022-09-02T14:49:33;0.30;;;0.10;;
1354;SDS011;671;48.972;9.276;2022-09-02T14:52:09;0.30;;;0.20;;
1354;SDS011;671;48.972;9.276;2022-09-02T14:54:48;0.30;;;0.10;;
1354;SDS011;671;48.972;9.276;2022-09-02T14:57:26;0.30;;;0.10;;
1354;SDS011;671;48.972;9.276;2022-09-02T14:59:59;0.30;;;0.10;;
1354;SDS011;671;48.972;9.276;2022-09-02T15:02:32;0.30;;;0.10;;
1354;SDS011;671;48.972;9.276;2022-09-02T15:05:02;0.30;;;0.10;;
1354;SDS011;671;48.972;9.276;2022-09-02T15:07:33;0.30;;;0.10;;
1354;SDS011;671;48.972;9.276;2022-09-02T15:09:59;0.30;;;0.10;;
1354;SDS011;671;48.972;9.276;2022-09-02T15:12:27;0.30;;;0.10;;
1354;SDS011;671;48.972;9.276;2022-09-02T15:14:56;0.30;;;0.10;;
1354;SDS011;671;48.972;9.276;2022-09-02T15:17:23;0.30;;;0.10;;
1354;SDS011;671;48.972;9.276;2022-09-02T15:19:50;0.30;;;0.10;;
1354;SDS011;671;48.972;9.276;2022-09-02T15:22:17;0.30;;;0.10;;
1354;SDS011;671;48.972;9.276;2022-09-02T15:24:44;0.30;;;0.10;;
1354;SDS011;671;48.972;9.276;2022-09-02T15:27:11;0.30;;;0.10;;
1354;SDS011;671;48.972;9.276;2022-09-02T15:29:37;0.30;;;0.10;;
1354;SDS011;671;48.972;9.276;2022-09-02T15:32:04;0.30;;;0.20;;
1354;SDS011;671;48.972;9.276;2022-09-02T15:34:31;0.30;;;0.10;;
1354;SDS011;671;48.972;9.276;2022-09-02T15:36:59;0.30;;;0.10;;
1354;SDS011;671;48.972;9.276;2022-09-02T15:39:26;0.30;;;0.10;;
1354;SDS011;671;48.972;9.276;2022-09-02T15:41:53;0.30;;;0.10;;
1354;SDS011;671;48.972;9.276;2022-09-02T15:44:20;0.30;;;0.10;;
1354;SDS011;671;48.972;9.276;2022-09-02T15:46:51;0.30;;;0.10;;
1354;SDS011;671;48.972;9.276;2022-09-02T15:49:18;0.30;;;0.10;;
1354;SDS011;671;48.972;9.276;2022-09-02T15:51:46;0.30;;;0.10;;
1354;SDS011;671;48.972;9.276;2022-09-02T15:54:15;0.30;;;0.10;;
1354;SDS011;671;48.972;9.276;2022-09-02T15:56:44;0.30;;;0.10;;
1354;SDS011;671;48.972;9.276;2022-09-02T15:59:17;0.30;;;0.10;;
1354;SDS011;671;48.972;9.276;2022-09-02T16:01:46;0.30;;;0.10;;
1354;SDS011;671;48.972;9.276;2022-09-02T16:04:14;0.30;;;0.10;;
1354;SDS011;671;48.972;9.276;2022-09-02T16:06:43;0.30;;;0.10;;
1354;SDS011;671;48.972;9.276;2022-09-02T16:09:13;0.30;;;0.10;;
1354;SDS011;671;48.972;9.276;2022-09-02T16:11:44;0.30;;;0.10;;
1354;SDS011;671;48.972;9.276;2022-09-02T16:14:13;0.30;;;0.10;;
1354;SDS011;671;48.972;9.276;2022-09-02T16:16:40;0.30;;;0.10;;
1354;SDS011;671;48.972;9.276;2022-09-02T16:19:07;0.30;;;0.10;;
1354;SDS011;671;48.972;9.276;2022-09-02T16:21:35;0.30;;;0.20;;
1354;SDS011;671;48.972;9.276;2022-09-02T16:24:06;0.30;;;0.10;;
1354;SDS011;671;48.972;9.276;2022-09-02T16:26:35;0.30;;;0.10;;
1354;SDS011;671;48.972;9.276;2022-09-02T16:29:04;0.30;;;0.10;;
1354;SDS011;671;48.972;9.276;2022-09-02T16:31:33;0.30;;;0.10;;
1354;SDS011;671;48.972;9.276;2022-09-02T16:34:04;0.30;;;0.10;;
1354;SDS011;671;48.972;9.276;2022-09-02T16:36:32;0.30;;;0.10;;
1354;SDS011;671;48.972;9.276;2022-09-02T16:39:01;0.30;;;0.10;;
1354;SDS011;671;48.972;9.276;2022-09-02T16:41:30;0.30;;;0.10;;
1354;SDS011;671;48.972;9.276;2022-09-02T16:44:03;0.30;;;0.20;;
1354;SDS011;671;48.972;9.276;2022-09-02T16:46:34;0.30;;;0.10;;
1354;SDS011;671;48.972;9.276;2022-09-02T16:49:02;0.30;;;0.10;;
1354;SDS011;671;48.972;9.276;2022-09-02T16:51:28;0.30;;;0.10;;
1354;SDS011;671;48.972;9.276;2022-09-02T16:53:56;0.30;;;0.20;;
1354;SDS011;671;48.972;9.276;2022-09-02T16:56:24;0.30;;;0.10;;
1354;SDS011;671;48.972;9.276;2022-09-02T16:58:51;0.30;;;0.20;;
1354;SDS011;671;48.972;9.276;2022-09-02T17:01:19;0.30;;;0.20;;
1354;SDS011;671;48.972;9.276;2022-09-02T17:03:47;0.30;;;0.10;;
1354;SDS011;671;48.972;9.276;2022-09-02T17:06:15;0.30;;;0.20;;
1354;SDS011;671;48.972;9.276;2022-09-02T17:08:42;0.30;;;0.20;;
1354;SDS011;671;48.972;9.276;2022-09-02T17:11:31;0.30;;;0.10;;
1354;SDS011;671;48.972;9.276;2022-09-02T17:14:05;0.30;;;0.10;;
1354;SDS011;671;48.972;9.276;2022-09-02T17:16:45;0.30;;;0.10;;
1354;SDS011;671;48.972;9.276;2022-09-02T17:19:14;0.30;;;0.10;;
1354;SDS011;671;48.972;9.276;2022-09-02T17:21:49;0.30;;;0.20;;
1354;SDS011;671;48.972;9.276;2022-09-02T17:24:18;0.30;;;0.10;;
1354;SDS011;671;48.972;9.276;2022-09-02T17:26:48;0.30;;;0.10;;
1354;SDS011;671;48.972;9.276;2022-09-02T17:29:18;0.30;;;0.13;;
1354;SDS011;671;48.972;9.276;2022-09-02T17:31:46;0.30;;;0.10;;
1354;SDS011;671;48.972;9.276;2022-09-02T17:34:13;0.30;;;0.10;;
1354;SDS011;671;48.972;9.276;2022-09-02T17:36:40;0.30;;;0.20;;
1354;SDS011;671;48.972;9.276;2022-09-02T17:39:09;0.30;;;0.20;;
1354;SDS011;671;48.972;9.276;2022-09-02T17:41:43;0.30;;;0.10;;
1354;SDS011;671;48.972;9.276;2022-09-02T17:44:26;0.30;;;0.20;;
1354;SDS011;671;48.972;9.276;2022-09-02T17:47:00;0.30;;;0.20;;
1354;SDS011;671;48.972;9.276;2022-09-02T17:49:34;0.30;;;0.10;;
1354;SDS011;671;48.972;9.276;2022-09-02T17:52:02;0.30;;;0.20;;
1354;SDS011;671;48.972;9.276;2022-09-02T17:54:31;0.30;;;0.20;;
1354;SDS011;671;48.972;9.276;2022-09-02T18:00:08;0.30;;;0.20;;
1354;SDS011;671;48.972;9.276;2022-09-02T18:07:56;0.30;;;0.20;;
1354;SDS011;671;48.972;9.276;2022-09-02T18:10:31;0.30;;;0.20;;
1354;SDS011;671;48.972;9.276;2022-09-02T18:13:06;0.30;;;0.10;;
1354;SDS011;671;48.972;9.276;2022-09-02T18:15:42;0.30;;;0.20;;
1354;SDS011;671;48.972;9.276;2022-09-02T18:18:34;0.30;;;0.20;;
1354;SDS011;671;48.972;9.276;2022-09-02T18:21:15;0.30;;;0.20;;
1354;SDS011;671;48.972;9.276;2022-09-02T18:32:00;0.30;;;0.20;;
1354;SDS011;671;48.972;9.276;2022-09-02T18:45:46;0.30;;;0.20;;
1354;SDS011;671;48.972;9.276;2022-09-02T18:48:17;0.30;;;0.20;;
1354;SDS011;671;48.972;9.276;2022-09-02T18:50:46;0.30;;;0.20;;
1354;SDS011;671;48.972;9.276;2022-09-02T18:53:20;0.30;;;0.20;;
1354;SDS011;671;48.972;9.276;2022-09-02T18:55:50;0.30;;;0.20;;
1354;SDS011;671;48.972;9.276;2022-09-02T19:01:25;0.30;;;0.20;;
1354;SDS011;671;48.972;9.276;2022-09-02T19:03:54;0.30;;;0.20;;
1354;SDS011;671;48.972;9.276;2022-09-02T19:06:25;0.30;;;0.20;;
1354;SDS011;671;48.972;9.276;2022-09-02T19:08:56;0.30;;;0.20;;
1354;SDS011;671;48.972;9.276;2022-09-02T19:11:24;0.30;;;0.20;;
1354;SDS011;671;48.972;9.276;2022-09-02T19:13:52;0.30;;;0.20;;
1354;SDS011;671;48.972;9.276;2022-09-02T19:16:22;0.30;;;0.20;;